sensor_id;sensor_type;location;lat;lon;timestamp;temperature;humidity
7378;DHT22;3730;50.856;12.776;2022-07-12T00:02:12;16.50;99.90
7378;DHT22;3730;50.856;12.776;2022-07-12T00:07:04;16.50;99.90
7378;DHT22;3730;50.856;12.776;2022-07-12T00:09:30;16.50;99.90
7378;DHT22;3730;50.856;12.776;2022-07-12T00:11:55;16.50;99.90
7378;DHT22;3730;50.856;12.776;2022-07-12T00:14:23;16.40;99.90
7378;DHT22;3730;50.856;12.776;2022-07-12T00:16:49;16.40;99.90
7378;DHT22;3730;50.856;12.776;2022-07-12T00:21:41;16.40;99.90
7378;DHT22;3730;50.856;12.776;2022-07-12T00:24:06;16.40;99.90
7378;DHT22;3730;50.856;12.776;2022-07-12T00:26:32;16.30;99.90
7378;DHT22;3730;50.856;12.776;2022-07-12T00:28:58;16.00;99.90
7378;DHT22;3730;50.856;12.776;2022-07-12T00:31:23;16.20;99.90
7378;DHT22;3730;50.856;12.776;2022-07-12T00:36:15;16.10;99.90
7378;DHT22;3730;50.856;12.776;2022-07-12T00:38:41;16.10;99.90
7378;DHT22;3730;50.856;12.776;2022-07-12T00:43:33;16.00;99.90
7378;DHT22;3730;50.856;12.776;2022-07-12T00:45:58;16.10;99.90
7378;DHT22;3730;50.856;12.776;2022-07-12T00:48:24;15.80;99.90
7378;DHT22;3730;50.856;12.776;2022-07-12T00:50:50;16.00;99.90
7378;DHT22;3730;50.856;12.776;2022-07-12T00:53:16;16.00;99.90
7378;DHT22;3730;50.856;12.776;2022-07-12T00:55:44;16.10;99.90
7378;DHT22;3730;50.856;12.776;2022-07-12T00:58:09;16.10;99.90
7378;DHT22;3730;50.856;12.776;2022-07-12T01:00:35;16.20;99.90
7378;DHT22;3730;50.856;12.776;2022-07-12T01:03:02;16.20;99.90
7378;DHT22;3730;50.856;12.776;2022-07-12T01:05:28;16.10;99.90
7378;DHT22;3730;50.856;12.776;2022-07-12T01:07:55;16.10;99.90
7378;DHT22;3730;50.856;12.776;2022-07-12T01:10:22;16.10;99.90
7378;DHT22;3730;50.856;12.776;2022-07-12T01:12:49;16.10;99.90
7378;DHT22;3730;50.856;12.776;2022-07-12T01:15:15;16.00;99.90
7378;DHT22;3730;50.856;12.776;2022-07-12T01:17:41;16.10;99.90
7378;DHT22;3730;50.856;12.776;2022-07-12T01:20:09;16.10;99.90
7378;DHT22;3730;50.856;12.776;2022-07-12T01:22:36;16.10;99.90
7378;DHT22;3730;50.856;12.776;2022-07-12T01:25:04;16.10;99.90
7378;DHT22;3730;50.856;12.776;2022-07-12T01:27:30;16.10;99.90
7378;DHT22;3730;50.856;12.776;2022-07-12T01:29:56;16.00;99.90
7378;DHT22;3730;50.856;12.776;2022-07-12T01:32:22;16.10;99.90
7378;DHT22;3730;50.856;12.776;2022-07-12T01:34:54;16.10;99.90
7378;DHT22;3730;50.856;12.776;2022-07-12T01:37:21;16.00;99.90
7378;DHT22;3730;50.856;12.776;2022-07-12T01:39:50;16.10;99.90
7378;DHT22;3730;50.856;12.776;2022-07-12T01:42:16;16.10;99.90
7378;DHT22;3730;50.856;12.776;2022-07-12T01:44:42;16.00;99.90
7378;DHT22;3730;50.856;12.776;2022-07-12T01:47:07;16.00;99.90
7378;DHT22;3730;50.856;12.776;2022-07-12T01:49:33;16.00;99.90
7378;DHT22;3730;50.856;12.776;2022-07-12T01:51:59;16.10;99.90
7378;DHT22;3730;50.856;12.776;2022-07-12T01:54:25;16.10;99.90
7378;DHT22;3730;50.856;12.776;2022-07-12T01:56:55;16.00;99.90
7378;DHT22;3730;50.856;12.776;2022-07-12T01:59:21;16.00;99.90
7378;DHT22;3730;50.856;12.776;2022-07-12T02:01:47;16.10;99.90
7378;DHT22;3730;50.856;12.776;2022-07-12T02:04:17;16.10;99.90
7378;DHT22;3730;50.856;12.776;2022-07-12T02:06:45;16.30;99.90
7378;DHT22;3730;50.856;12.776;2022-07-12T02:09:12;16.00;99.90
7378;DHT22;3730;50.856;12.776;2022-07-12T02:11:38;16.00;99.90
7378;DHT22;3730;50.856;12.776;2022-07-12T02:14:04;16.00;99.90
7378;DHT22;3730;50.856;12.776;2022-07-12T02:16:29;16.10;99.90
7378;DHT22;3730;50.856;12.776;2022-07-12T02:18:55;16.10;99.90
7378;DHT22;3730;50.856;12.776;2022-07-12T02:21:21;16.10;99.90
7378;DHT22;3730;50.856;12.776;2022-07-12T02:23:46;16.10;99.90
7378;DHT22;3730;50.856;12.776;2022-07-12T02:26:12;16.20;99.90
7378;DHT22;3730;50.856;12.776;2022-07-12T02:28:38;16.20;99.90
7378;DHT22;3730;50.856;12.776;2022-07-12T02:31:04;16.20;99.90
7378;DHT22;3730;50.856;12.776;2022-07-12T02:33:30;16.20;99.90
7378;DHT22;3730;50.856;12.776;2022-07-12T02:35:56;16.20;99.90
7378;DHT22;3730;50.856;12.776;2022-07-12T05:07:40;15.70;99.90
7378;DHT22;3730;50.856;12.776;2022-07-12T13:52:11;17.90;99.90
7378;DHT22;3730;50.856;12.776;2022-07-12T14:01:56;26.20;8.50
7378;DHT22;3730;50.856;12.776;2022-07-12T14:04:21;26.60;5.60
7378;DHT22;3730;50.856;12.776;2022-07-12T14:06:47;26.70;2.50
7378;DHT22;3730;50.856;12.776;2022-07-12T14:09:15;26.50;3.40
7378;DHT22;3730;50.856;12.776;2022-07-12T14:11:41;26.40;2.40
7378;DHT22;3730;50.856;12.776;2022-07-12T14:14:06;26.40;2.00
7378;DHT22;3730;50.856;12.776;2022-07-12T14:16:32;26.70;1.10
7378;DHT22;3730;50.856;12.776;2022-07-12T14:33:37;26.80;1.00
7378;DHT22;3730;50.856;12.776;2022-07-12T14:36:03;27.30;1.00
7378;DHT22;3730;50.856;12.776;2022-07-12T14:38:29;27.50;1.00
7378;DHT22;3730;50.856;12.776;2022-07-12T15:07:44;27.90;1.00
7378;DHT22;3730;50.856;12.776;2022-07-12T15:10:10;28.50;1.00
7378;DHT22;3730;50.856;12.776;2022-07-12T15:12:36;28.60;1.00
7378;DHT22;3730;50.856;12.776;2022-07-12T15:15:02;28.20;1.00
7378;DHT22;3730;50.856;12.776;2022-07-12T15:17:28;27.70;1.00
7378;DHT22;3730;50.856;12.776;2022-07-12T15:19:53;27.60;1.00
7378;DHT22;3730;50.856;12.776;2022-07-12T15:22:19;27.60;1.00
7378;DHT22;3730;50.856;12.776;2022-07-12T15:24:45;27.80;1.00
7378;DHT22;3730;50.856;12.776;2022-07-12T15:27:11;28.00;1.00
7378;DHT22;3730;50.856;12.776;2022-07-12T15:29:37;27.90;1.00
7378;DHT22;3730;50.856;12.776;2022-07-12T15:32:05;27.80;1.00
7378;DHT22;3730;50.856;12.776;2022-07-12T15:34:31;28.00;1.00
7378;DHT22;3730;50.856;12.776;2022-07-12T15:36:56;28.30;1.00
7378;DHT22;3730;50.856;12.776;2022-07-12T15:39:22;28.40;1.00
7378;DHT22;3730;50.856;12.776;2022-07-12T15:44:17;28.70;1.00
7378;DHT22;3730;50.856;12.776;2022-07-12T15:46:43;29.20;1.00
7378;DHT22;3730;50.856;12.776;2022-07-12T15:49:09;29.20;1.00
7378;DHT22;3730;50.856;12.776;2022-07-12T15:51:37;29.20;1.00
7378;DHT22;3730;50.856;12.776;2022-07-12T15:54:21;29.20;1.00
7378;DHT22;3730;50.856;12.776;2022-07-12T15:56:47;28.60;1.00
7378;DHT22;3730;50.856;12.776;2022-07-12T15:59:13;28.40;1.00
7378;DHT22;3730;50.856;12.776;2022-07-12T16:01:39;28.30;1.00
7378;DHT22;3730;50.856;12.776;2022-07-12T16:04:06;28.20;1.00
7378;DHT22;3730;50.856;12.776;2022-07-12T16:06:33;28.20;1.00
7378;DHT22;3730;50.856;12.776;2022-07-12T16:09:01;28.10;1.00
7378;DHT22;3730;50.856;12.776;2022-07-12T16:11:27;28.10;1.00
7378;DHT22;3730;50.856;12.776;2022-07-12T16:13:53;27.90;1.00
7378;DHT22;3730;50.856;12.776;2022-07-12T16:16:19;27.70;1.00
7378;DHT22;3730;50.856;12.776;2022-07-12T16:18:44;27.60;1.00
7378;DHT22;3730;50.856;12.776;2022-07-12T16:21:10;27.60;1.00
7378;DHT22;3730;50.856;12.776;2022-07-12T16:23:36;27.50;1.00
7378;DHT22;3730;50.856;12.776;2022-07-12T16:26:02;27.50;1.00
7378;DHT22;3730;50.856;12.776;2022-07-12T16:28:28;27.40;1.00
7378;DHT22;3730;50.856;12.776;2022-07-12T16:30:54;27.40;1.00
7378;DHT22;3730;50.856;12.776;2022-07-12T16:35:46;27.20;1.00
7378;DHT22;3730;50.856;12.776;2022-07-12T16:38:11;26.90;1.00
7378;DHT22;3730;50.856;12.776;2022-07-12T16:40:37;26.70;1.00
7378;DHT22;3730;50.856;12.776;2022-07-12T16:43:03;26.60;1.00
7378;DHT22;3730;50.856;12.776;2022-07-12T16:45:28;26.60;1.00
7378;DHT22;3730;50.856;12.776;2022-07-12T16:47:56;26.50;1.00
7378;DHT22;3730;50.856;12.776;2022-07-12T16:50:21;26.50;1.00
7378;DHT22;3730;50.856;12.776;2022-07-12T16:52:47;26.20;1.00
7378;DHT22;3730;50.856;12.776;2022-07-12T16:55:13;25.90;1.00
7378;DHT22;3730;50.856;12.776;2022-07-12T17:00:07;25.60;1.00
7378;DHT22;3730;50.856;12.776;2022-07-12T17:02:37;25.10;1.00
7378;DHT22;3730;50.856;12.776;2022-07-12T17:05:04;25.20;1.00
7378;DHT22;3730;50.856;12.776;2022-07-12T17:07:30;25.30;1.00
7378;DHT22;3730;50.856;12.776;2022-07-12T17:09:56;25.30;1.00
7378;DHT22;3730;50.856;12.776;2022-07-12T17:12:22;25.30;1.00
7378;DHT22;3730;50.856;12.776;2022-07-12T17:14:47;25.20;1.00
7378;DHT22;3730;50.856;12.776;2022-07-12T17:17:13;25.30;1.00
7378;DHT22;3730;50.856;12.776;2022-07-12T17:19:39;25.20;1.00
7378;DHT22;3730;50.856;12.776;2022-07-12T17:22:05;25.30;1.00
7378;DHT22;3730;50.856;12.776;2022-07-12T17:24:32;25.30;1.00
7378;DHT22;3730;50.856;12.776;2022-07-12T17:26:58;25.20;1.00
7378;DHT22;3730;50.856;12.776;2022-07-12T17:29:23;25.20;1.00
7378;DHT22;3730;50.856;12.776;2022-07-12T17:31:50;25.20;1.00
7378;DHT22;3730;50.856;12.776;2022-07-12T17:34:15;25.20;1.00
7378;DHT22;3730;50.856;12.776;2022-07-12T17:36:41;25.20;1.00
7378;DHT22;3730;50.856;12.776;2022-07-12T17:39:07;25.10;1.00
7378;DHT22;3730;50.856;12.776;2022-07-12T17:41:33;25.10;1.00
7378;DHT22;3730;50.856;12.776;2022-07-12T17:43:58;25.20;1.00
7378;DHT22;3730;50.856;12.776;2022-07-12T17:46:24;25.10;1.00
7378;DHT22;3730;50.856;12.776;2022-07-12T17:48:54;25.00;1.00
7378;DHT22;3730;50.856;12.776;2022-07-12T17:51:20;24.90;1.00
7378;DHT22;3730;50.856;12.776;2022-07-12T17:53:46;24.70;1.00
7378;DHT22;3730;50.856;12.776;2022-07-12T18:13:21;24.70;1.00
7378;DHT22;3730;50.856;12.776;2022-07-12T18:23:23;24.50;1.00
7378;DHT22;3730;50.856;12.776;2022-07-12T18:40:32;24.30;1.00
7378;DHT22;3730;50.856;12.776;2022-07-12T18:42:57;23.90;1.00
7378;DHT22;3730;50.856;12.776;2022-07-12T18:45:25;23.90;1.00
7378;DHT22;3730;50.856;12.776;2022-07-12T18:47:51;23.90;1.00
7378;DHT22;3730;50.856;12.776;2022-07-12T18:50:17;24.00;1.00
7378;DHT22;3730;50.856;12.776;2022-07-12T18:52:43;23.90;1.00
7378;DHT22;3730;50.856;12.776;2022-07-12T18:55:09;23.90;1.00
7378;DHT22;3730;50.856;12.776;2022-07-12T18:57:35;23.80;1.00
7378;DHT22;3730;50.856;12.776;2022-07-12T20:30:17;23.80;1.00
7378;DHT22;3730;50.856;12.776;2022-07-12T20:32:43;21.40;11.70
7378;DHT22;3730;50.856;12.776;2022-07-12T20:35:27;21.30;13.20
7378;DHT22;3730;50.856;12.776;2022-07-12T20:37:52;21.20;12.60
7378;DHT22;3730;50.856;12.776;2022-07-12T20:40:18;21.20;13.20
7378;DHT22;3730;50.856;12.776;2022-07-12T20:42:44;21.10;13.50
7378;DHT22;3730;50.856;12.776;2022-07-12T20:45:11;21.10;14.00
7378;DHT22;3730;50.856;12.776;2022-07-12T20:47:37;21.10;14.50
7378;DHT22;3730;50.856;12.776;2022-07-12T20:54:55;21.00;14.70
7378;DHT22;3730;50.856;12.776;2022-07-12T21:55:49;20.90;15.20
7378;DHT22;3730;50.856;12.776;2022-07-12T21:58:16;20.10;24.40
7378;DHT22;3730;50.856;12.776;2022-07-12T22:00:42;20.00;24.80
7378;DHT22;3730;50.856;12.776;2022-07-12T22:03:08;20.00;25.20
7378;DHT22;3730;50.856;12.776;2022-07-12T22:05:37;20.00;25.60
7378;DHT22;3730;50.856;12.776;2022-07-12T23:01:42;19.40;34.20
7378;DHT22;3730;50.856;12.776;2022-07-12T23:04:08;19.30;34.40
7378;DHT22;3730;50.856;12.776;2022-07-12T23:06:34;19.20;35.00
7378;DHT22;3730;50.856;12.776;2022-07-12T23:16:19;19.20;37.20
7378;DHT22;3730;50.856;12.776;2022-07-12T23:18:45;19.20;37.70
7378;DHT22;3730;50.856;12.776;2022-07-12T23:21:11;19.10;37.90
7378;DHT22;3730;50.856;12.776;2022-07-12T23:23:37;19.10;38.20
7378;DHT22;3730;50.856;12.776;2022-07-12T23:26:06;19.10;38.50
7378;DHT22;3730;50.856;12.776;2022-07-12T23:28:33;19.00;38.80
7378;DHT22;3730;50.856;12.776;2022-07-12T23:30:58;19.00;39.30
7378;DHT22;3730;50.856;12.776;2022-07-12T23:55:20;18.80;43.10
